createdAt,value
2023-05-21T00:00:34.094Z,96188.69
2023-05-21T00:02:35.743Z,96190.34
2023-05-21T00:04:37.604Z,96188.47
2023-05-21T00:06:39.164Z,96190.56
2023-05-21T00:08:40.920Z,96175.75
2023-05-21T00:10:43.885Z,96187.97
2023-05-21T00:12:45.424Z,96186.69
2023-05-21T00:14:46.968Z,96177.91
2023-05-21T00:16:48.566Z,96173.69
2023-05-21T00:18:50.436Z,96180.84
2023-05-21T00:20:52.076Z,96174.88
2023-05-21T00:22:53.605Z,96188.16
2023-05-21T00:24:55.132Z,96179.28
2023-05-21T00:26:58.040Z,96161.13
2023-05-21T00:28:59.927Z,96176.31
2023-05-21T00:31:01.562Z,96151.31
2023-05-21T00:33:03.255Z,96159.03
2023-05-21T00:35:05.938Z,96159.50
2023-05-21T00:37:07.516Z,96157.72
2023-05-21T00:39:09.048Z,96162.03
2023-05-21T00:41:10.968Z,96161.22
2023-05-21T00:43:13.978Z,96152.22
2023-05-21T00:45:15.710Z,96152.22
2023-05-21T00:47:17.298Z,96158.00
2023-05-21T00:49:19.155Z,96152.38
2023-05-21T00:51:20.903Z,96147.84
2023-05-21T00:53:22.521Z,96147.78
2023-05-21T00:55:24.404Z,96142.78
2023-05-21T00:57:26.716Z,96136.00
2023-05-21T00:59:29.682Z,96154.41
2023-05-21T01:01:32.004Z,96151.56
2023-05-21T01:03:35.223Z,96150.38
2023-05-21T01:05:37.016Z,96148.59
2023-05-21T01:07:40.610Z,96147.09
2023-05-21T01:09:43.373Z,96149.13
2023-05-21T01:11:47.482Z,96148.00
2023-05-21T01:13:50.029Z,96143.53
2023-05-21T01:15:54.291Z,96149.25
2023-05-21T01:17:56.147Z,96147.69
2023-05-21T01:19:58.484Z,96134.00
2023-05-21T01:22:03.551Z,96134.59
2023-05-21T01:24:06.660Z,96134.44
2023-05-21T01:26:08.310Z,96131.19
2023-05-21T01:28:09.928Z,96138.47
2023-05-21T01:30:13.190Z,96132.00
2023-05-21T01:32:22.190Z,96132.75
2023-05-21T01:34:29.990Z,96130.88
2023-05-21T01:36:38.423Z,96132.66
2023-05-21T01:38:43.544Z,96129.84
2023-05-21T01:40:52.959Z,96137.97
2023-05-21T01:42:54.686Z,96131.63
2023-05-21T01:44:59.223Z,96133.34
2023-05-21T01:47:02.085Z,96132.44
2023-05-21T01:49:05.113Z,96129.56
2023-05-21T01:51:06.770Z,96122.19
2023-05-21T01:53:08.310Z,96134.84
2023-05-21T01:55:10.184Z,96122.63
2023-05-21T01:57:13.219Z,96130.81
2023-05-21T01:59:15.073Z,96117.72
2023-05-21T02:01:16.608Z,96130.22
2023-05-21T02:03:19.061Z,96123.88
2023-05-21T02:05:20.892Z,96125.31
2023-05-21T02:07:22.413Z,96122.25
2023-05-21T02:09:23.922Z,96120.53
2023-05-21T02:11:25.439Z,96126.78
2023-05-21T02:13:28.309Z,96122.41
2023-05-21T02:15:29.884Z,96124.69
2023-05-21T02:17:31.561Z,96122.19
2023-05-21T02:19:33.141Z,96127.09
2023-05-21T02:21:34.715Z,96120.53
2023-05-21T02:23:36.230Z,96121.66
2023-05-21T02:25:38.077Z,96124.53
2023-05-21T02:27:41.346Z,96125.59
2023-05-21T02:29:44.238Z,96123.63
2023-05-21T02:31:45.747Z,96113.72
2023-05-21T02:33:47.283Z,96117.81
2023-05-21T02:35:48.966Z,96111.59
2023-05-21T02:37:50.495Z,96111.59
2023-05-21T02:39:52.015Z,96111.66
2023-05-21T02:41:53.536Z,96111.28
2023-05-21T02:43:55.045Z,96113.78
2023-05-21T02:45:57.979Z,96116.19
2023-05-21T02:47:59.563Z,96108.00
2023-05-21T02:50:01.383Z,96103.69
2023-05-21T02:52:02.978Z,96113.78
2023-05-21T02:54:04.480Z,96111.28
2023-05-21T02:56:06.210Z,96108.97
2023-05-21T02:58:07.758Z,96112.91
2023-05-21T03:00:10.618Z,96106.81
2023-05-21T03:02:13.692Z,96103.50
2023-05-21T03:04:15.284Z,96094.25
2023-05-21T03:06:16.833Z,96101.97
2023-05-21T03:08:18.340Z,96106.88
2023-05-21T03:10:19.892Z,96102.41
2023-05-21T03:12:21.438Z,96103.16
2023-05-21T03:14:22.970Z,96096.63
2023-05-21T03:16:24.586Z,96097.00
2023-05-21T03:18:27.509Z,96094.75
2023-05-21T03:20:29.235Z,96066.75
2023-05-21T03:22:30.830Z,96094.81
2023-05-21T03:24:32.408Z,96103.72
2023-05-21T03:26:33.940Z,96097.13
2023-05-21T03:28:35.642Z,96098.97
2023-05-21T03:30:37.165Z,96099.19
2023-05-21T03:32:38.824Z,96065.56
2023-05-21T03:34:41.726Z,96100.00
2023-05-21T03:36:43.357Z,96104.09
2023-05-21T03:38:44.953Z,96096.31
2023-05-21T03:40:46.584Z,96098.34
2023-05-21T03:42:48.268Z,96098.34
2023-05-21T03:44:49.808Z,96093.41
2023-05-21T03:46:51.317Z,96094.25
2023-05-21T03:48:52.812Z,96088.28
2023-05-21T03:50:55.920Z,96095.91
2023-05-21T03:52:57.620Z,96099.63
2023-05-21T03:54:59.139Z,96095.91
2023-05-21T03:57:00.675Z,96101.28
2023-05-21T03:59:02.309Z,96097.38
2023-05-21T04:01:04.135Z,96096.97
2023-05-21T04:03:05.856Z,96098.38
2023-05-21T04:05:08.260Z,96098.44
2023-05-21T04:07:11.133Z,96105.41
2023-05-21T04:09:12.650Z,96098.09
2023-05-21T04:11:14.224Z,96110.63
2023-05-21T04:13:15.735Z,96109.28
2023-05-21T04:15:17.247Z,96115.50
2023-05-21T04:17:18.794Z,96115.66
2023-05-21T04:19:20.386Z,96118.69
2023-05-21T04:21:22.008Z,96118.69
2023-05-21T04:23:24.906Z,96116.34
2023-05-21T04:25:26.474Z,96113.66
2023-05-21T04:27:28.014Z,96118.72
2023-05-21T04:29:29.687Z,96121.19
2023-05-21T04:31:31.416Z,96118.72
2023-05-21T04:33:32.981Z,96129.75
2023-05-21T04:35:34.750Z,96127.25
2023-05-21T04:37:36.400Z,96135.88
2023-05-21T04:39:39.306Z,96137.94
2023-05-21T04:41:40.853Z,96144.91
2023-05-21T04:43:42.366Z,96145.13
2023-05-21T04:45:43.877Z,96135.91
2023-05-21T04:47:45.424Z,96142.03
2023-05-21T04:49:47.131Z,96147.78
2023-05-21T04:51:48.675Z,96146.56
2023-05-21T04:53:51.415Z,96133.28
2023-05-21T04:55:54.295Z,96147.38
2023-05-21T04:57:55.814Z,96146.09
2023-05-21T04:59:57.328Z,96147.75
2023-05-21T05:01:58.907Z,96141.56
2023-05-21T05:04:00.575Z,96145.91
2023-05-21T05:06:02.164Z,96151.84
2023-05-21T05:08:03.908Z,96152.31
2023-05-21T05:10:06.310Z,96144.66
2023-05-21T05:12:09.349Z,96138.66
2023-05-21T05:14:10.844Z,96145.22
2023-05-21T05:16:12.416Z,96147.44
2023-05-21T05:18:14.868Z,96149.84
2023-05-21T05:20:16.521Z,96147.34
2023-05-21T05:22:18.033Z,96148.09
2023-05-21T05:24:19.605Z,96147.53
2023-05-21T05:26:21.171Z,96147.28
2023-05-21T05:28:24.077Z,96146.44
2023-05-21T05:30:25.642Z,96143.72
2023-05-21T05:32:27.214Z,96145.78
2023-05-21T05:34:28.817Z,96144.47
2023-05-21T05:36:30.411Z,96145.25
2023-05-21T05:38:31.923Z,96143.16
2023-05-21T05:40:33.437Z,96145.84
2023-05-21T05:42:35.027Z,96141.91
2023-05-21T05:44:37.945Z,96140.09
2023-05-21T05:46:39.590Z,96148.41
2023-05-21T05:48:41.215Z,96134.25
2023-05-21T05:50:42.846Z,96142.25
2023-05-21T05:52:44.376Z,96143.91
2023-05-21T05:54:45.954Z,96140.91
2023-05-21T05:56:47.507Z,96144.63
2023-05-21T05:58:49.008Z,96147.97
2023-05-21T06:00:52.078Z,96148.50
2023-05-21T06:02:53.709Z,96148.44
2023-05-21T06:04:55.330Z,96122.13
2023-05-21T06:06:57.156Z,96134.84
2023-05-21T06:08:58.662Z,96149.19
2023-05-21T06:11:00.198Z,96154.97
2023-05-21T06:13:01.877Z,96144.63
2023-05-21T06:15:04.041Z,96150.06
2023-05-21T06:17:06.906Z,96156.16
2023-05-21T06:19:08.506Z,96147.91
2023-05-21T06:21:10.069Z,96148.97
2023-05-21T06:23:11.700Z,96146.81
2023-05-21T06:25:13.244Z,96144.75
2023-05-21T06:27:14.948Z,96153.41
2023-05-21T06:29:16.473Z,96146.59
2023-05-21T06:31:18.084Z,96155.16
2023-05-21T06:33:21.015Z,96154.84
2023-05-21T06:35:22.740Z,96149.28
2023-05-21T06:37:26.432Z,96145.88
2023-05-21T06:39:28.225Z,96146.13
2023-05-21T06:41:29.781Z,96147.69
2023-05-21T06:43:31.290Z,96150.84
2023-05-21T06:45:32.808Z,96144.84
2023-05-21T06:47:34.417Z,96129.97
2023-05-21T06:49:37.335Z,96142.31
2023-05-21T06:51:38.874Z,96148.91
2023-05-21T06:53:40.576Z,96146.97
2023-05-21T06:55:42.185Z,96124.09
2023-05-21T06:57:43.705Z,96155.81
2023-05-21T06:59:45.238Z,96154.78
2023-05-21T07:01:46.832Z,96150.81
2023-05-21T07:03:48.534Z,96152.34
2023-05-21T07:05:51.467Z,96151.84
2023-05-21T07:07:52.992Z,96157.47
2023-05-21T07:09:54.496Z,96154.47
2023-05-21T07:11:56.069Z,96125.25
2023-05-21T07:13:58.863Z,96146.78
2023-05-21T07:16:00.382Z,96148.88
2023-05-21T07:18:01.992Z,96155.06
2023-05-21T07:20:03.774Z,96156.34
2023-05-21T07:22:06.717Z,96159.16
2023-05-21T07:24:08.246Z,96152.97
2023-05-21T07:26:10.265Z,96156.78
2023-05-21T07:28:11.812Z,96150.56
2023-05-21T07:30:14.214Z,96151.84
2023-05-21T07:32:15.903Z,96145.06
2023-05-21T07:34:17.529Z,96145.88
2023-05-21T07:36:19.115Z,96151.19
2023-05-21T07:38:22.019Z,96144.19
2023-05-21T07:40:23.562Z,96137.91
2023-05-21T07:42:25.727Z,96146.44
2023-05-21T07:44:27.268Z,96143.94
2023-05-21T07:46:28.814Z,96138.16
2023-05-21T07:48:30.367Z,96149.34
2023-05-21T07:50:31.935Z,96141.19
2023-05-21T07:52:33.572Z,96134.72
2023-05-21T07:54:36.525Z,96140.34
2023-05-21T07:56:38.062Z,96139.88
2023-05-21T07:58:39.629Z,96136.03
2023-05-21T08:00:42.983Z,96136.41
2023-05-21T08:02:45.041Z,96133.81
2023-05-21T08:04:46.787Z,96143.22
2023-05-21T08:06:48.466Z,96144.28
2023-05-21T08:08:50.096Z,96131.44
2023-05-21T08:10:53.004Z,96137.66
2023-05-21T08:12:54.616Z,96139.63
2023-05-21T08:14:57.332Z,96129.69
2023-05-21T08:16:58.862Z,96134.38
2023-05-21T08:19:00.551Z,96132.00
2023-05-21T08:21:02.149Z,96127.69
2023-05-21T08:23:03.681Z,96132.03
2023-05-21T08:25:05.964Z,96129.00
2023-05-21T08:27:08.848Z,96132.41
2023-05-21T08:29:10.470Z,96127.72
2023-05-21T08:31:12.108Z,96131.59
2023-05-21T08:33:13.645Z,96133.13
2023-05-21T08:35:15.325Z,96123.97
2023-05-21T08:37:16.927Z,96135.56
2023-05-21T08:39:18.477Z,96134.09
2023-05-21T08:41:21.288Z,96130.72
2023-05-21T08:43:27.059Z,96133.22
2023-05-21T08:45:34.502Z,96133.31
2023-05-21T08:47:36.468Z,96138.25
2023-05-21T08:49:38.168Z,96137.94
2023-05-21T08:51:39.796Z,96129.72
2023-05-21T08:53:41.540Z,96134.78
2023-05-21T08:55:43.492Z,96129.50
2023-05-21T08:57:45.014Z,96131.84
2023-05-21T08:59:47.873Z,96135.22
2023-05-21T09:01:49.600Z,96136.03
2023-05-21T09:03:54.414Z,96137.81
2023-05-21T09:05:59.225Z,96138.91
2023-05-21T09:08:06.102Z,96138.28
2023-05-21T09:10:12.090Z,96134.09
2023-05-21T09:12:13.711Z,96136.41
2023-05-21T09:14:16.738Z,96138.22
2023-05-21T09:16:19.688Z,96127.97
2023-05-21T09:18:21.192Z,96129.13
2023-05-21T09:20:25.101Z,96127.50
2023-05-21T09:22:27.578Z,96128.84
2023-05-21T09:24:32.505Z,96122.69
2023-05-21T09:26:35.231Z,96129.75
2023-05-21T09:28:36.787Z,96127.03
2023-05-21T09:30:44.380Z,96127.56
2023-05-21T09:32:54.586Z,96128.72
2023-05-21T09:34:56.159Z,96117.34
2023-05-21T09:36:57.732Z,96132.75
2023-05-21T09:38:59.489Z,96115.59
2023-05-21T09:41:04.818Z,96120.56
2023-05-21T09:43:06.337Z,96120.06
2023-05-21T09:45:09.406Z,96130.91
2023-05-21T09:47:10.948Z,96121.69
2023-05-21T09:49:24.165Z,96118.44
2023-05-21T09:51:25.715Z,96121.69
2023-05-21T09:53:29.035Z,96122.78
2023-05-21T09:55:30.551Z,96120.59
2023-05-21T09:57:32.161Z,96121.16
2023-05-21T09:59:37.218Z,96115.31
2023-05-21T10:01:38.856Z,96118.81
2023-05-21T10:03:42.598Z,96123.16
2023-05-21T10:05:45.541Z,96128.31
2023-05-21T10:07:50.239Z,96126.47
2023-05-21T10:09:54.344Z,96127.78
2023-05-21T10:11:57.319Z,96128.13
2023-05-21T10:14:04.597Z,96116.19
2023-05-21T10:16:06.549Z,96125.63
2023-05-21T10:18:10.124Z,96121.34
2023-05-21T10:20:12.428Z,96118.84
2023-05-21T10:22:15.591Z,96127.09
2023-05-21T10:24:17.742Z,96129.53
2023-05-21T10:26:19.751Z,96130.38
2023-05-21T10:28:23.865Z,96121.69
2023-05-21T10:30:25.559Z,96116.81
2023-05-21T10:32:28.201Z,96116.28
2023-05-21T10:34:31.202Z,96126.59
2023-05-21T10:36:34.189Z,96131.50
2023-05-21T10:38:38.376Z,96123.03
2023-05-21T10:40:40.149Z,96120.00
2023-05-21T10:43:21.768Z,96111.91
2023-05-21T10:45:33.343Z,96129.88
2023-05-21T10:47:47.928Z,96122.25
2023-05-21T10:50:05.455Z,96121.44
2023-05-21T10:52:19.202Z,96125.25
2023-05-21T10:54:53.281Z,96119.53
2023-05-21T10:57:04.627Z,96119.03
2023-05-21T10:59:20.365Z,96125.78
2023-05-21T11:01:22.561Z,96124.44
2023-05-21T11:03:25.239Z,96128.22
2023-05-21T11:05:39.319Z,96109.50
2023-05-21T11:07:52.060Z,96113.03
2023-05-21T11:09:53.602Z,96113.59
2023-05-21T11:11:58.978Z,96104.88
2023-05-21T11:14:00.534Z,96120.34
2023-05-21T11:16:14.212Z,96118.69
2023-05-21T11:18:15.754Z,96113.56
2023-05-21T11:20:17.277Z,96119.53
2023-05-21T11:22:23.697Z,96115.72
2023-05-21T11:24:25.444Z,96130.38
2023-05-21T11:26:28.505Z,96119.53
2023-05-21T11:28:34.332Z,96116.81
2023-05-21T11:30:36.389Z,96119.00
2023-05-21T11:32:39.028Z,96118.47
2023-05-21T11:34:42.549Z,96083.22
2023-05-21T11:36:45.548Z,96109.78
2023-05-21T11:39:08.635Z,96121.19
2023-05-21T11:41:10.202Z,96119.53
2023-05-21T11:43:11.741Z,96125.50
2023-05-21T11:45:17.601Z,96123.34
2023-05-21T11:47:19.838Z,96116.03
2023-05-21T11:49:22.330Z,96126.56
2023-05-21T11:51:24.721Z,96130.13
2023-05-21T11:53:29.330Z,96126.56
2023-05-21T11:55:30.906Z,96128.75
2023-05-21T11:57:32.636Z,96131.78
2023-05-21T11:59:34.301Z,96126.34
2023-05-21T12:01:37.149Z,96127.13
2023-05-21T12:03:38.917Z,96132.56
2023-05-21T12:05:44.788Z,96126.34
2023-05-21T12:07:47.501Z,96119.03
2023-05-21T12:09:50.243Z,96125.53
2023-05-21T12:11:53.093Z,96129.31
2023-05-21T12:13:54.701Z,96131.75
2023-05-21T12:15:56.371Z,96132.56
2023-05-21T12:17:59.388Z,96134.19
2023-05-21T12:20:01.203Z,96123.84
2023-05-21T12:22:02.934Z,96104.88
2023-05-21T12:24:04.736Z,96130.94
2023-05-21T12:26:06.402Z,96128.50
2023-05-21T12:28:07.938Z,96131.16
2023-05-21T12:30:09.851Z,96133.06
2023-05-21T12:32:13.763Z,96140.63
2023-05-21T12:34:36.692Z,96128.69
2023-05-21T12:36:38.313Z,96134.69
2023-05-21T12:38:39.853Z,96129.25
2023-05-21T12:40:41.620Z,96132.00
2023-05-21T12:42:44.068Z,96135.25
2023-05-21T12:44:47.155Z,96133.09
2023-05-21T12:46:48.755Z,96128.97
2023-05-21T12:48:52.762Z,96129.22
2023-05-21T12:50:58.478Z,96140.34
2023-05-21T12:53:00.253Z,96137.41
2023-05-21T12:55:01.801Z,96139.56
2023-05-21T12:57:07.805Z,96130.34
2023-05-21T12:59:13.165Z,96133.56
2023-05-21T13:01:14.765Z,96139.03
2023-05-21T13:03:16.405Z,96138.44
2023-05-21T13:05:18.624Z,96139.47
2023-05-21T13:07:21.624Z,96134.91
2023-05-21T13:09:23.191Z,96133.00
2023-05-21T13:11:24.736Z,96139.63
2023-05-21T13:13:26.245Z,96131.44
2023-05-21T13:15:27.786Z,96137.44
2023-05-21T13:17:29.839Z,96137.41
2023-05-21T13:19:31.413Z,96137.16
2023-05-21T13:21:33.000Z,96135.81
2023-05-21T13:23:35.891Z,96139.09
2023-05-21T13:25:37.421Z,96142.91
2023-05-21T13:27:39.109Z,96134.19
2023-05-21T13:29:40.635Z,96135.53
2023-05-21T13:31:42.570Z,96138.50
2023-05-21T13:33:44.135Z,96135.00
2023-05-21T13:35:45.726Z,96135.78
2023-05-21T13:37:47.296Z,96139.09
2023-05-21T13:39:50.191Z,96142.63
2023-05-21T13:41:51.768Z,96140.19
2023-05-21T13:43:53.320Z,96148.03
2023-05-21T13:45:55.066Z,96140.19
2023-05-21T13:47:56.719Z,96142.34
2023-05-21T13:49:58.403Z,96145.03
2023-05-21T13:52:00.152Z,96136.38
2023-05-21T13:54:01.758Z,96145.03
2023-05-21T13:56:05.318Z,96149.09
2023-05-21T13:58:06.856Z,96141.25
2023-05-21T14:00:09.437Z,96149.66
2023-05-21T14:02:11.405Z,96146.16
2023-05-21T14:04:12.974Z,96151.56
2023-05-21T14:06:14.545Z,96148.84
2023-05-21T14:08:16.125Z,96137.41
2023-05-21T14:10:17.672Z,96148.28
2023-05-21T14:12:20.560Z,96145.03
2023-05-21T14:14:22.360Z,96141.78
2023-05-21T14:16:24.127Z,96145.31
2023-05-21T14:18:25.697Z,96143.38
2023-05-21T14:20:27.243Z,96139.06
2023-05-21T14:22:28.777Z,96146.09
2023-05-21T14:24:30.323Z,96140.69
2023-05-21T14:26:31.895Z,96138.50
2023-05-21T14:28:34.819Z,96135.53
2023-05-21T14:30:36.383Z,96139.06
2023-05-21T14:32:37.974Z,96135.28
2023-05-21T14:34:39.587Z,96104.88
2023-05-21T14:36:41.129Z,96136.91
2023-05-21T14:38:42.863Z,96125.22
2023-05-21T14:40:44.652Z,96135.81
2023-05-21T14:42:46.273Z,96128.22
2023-05-21T14:44:49.287Z,96133.63
2023-05-21T14:46:50.870Z,96125.50
2023-05-21T14:48:52.397Z,96124.16
2023-05-21T14:50:54.080Z,96122.53
2023-05-21T14:52:55.598Z,96126.59
2023-05-21T14:54:57.100Z,96120.09
2023-05-21T14:56:58.641Z,96125.50
2023-05-21T14:59:00.170Z,96123.34
2023-05-21T15:01:03.440Z,96125.50
2023-05-21T15:03:05.185Z,96122.75
2023-05-21T15:05:06.826Z,96117.00
2023-05-21T15:07:08.356Z,96097.72
2023-05-21T15:09:09.893Z,96116.66
2023-05-21T15:11:11.501Z,96114.97
2023-05-21T15:13:13.165Z,96113.72
2023-05-21T15:15:14.684Z,96110.00
2023-05-21T15:17:17.549Z,96115.03
2023-05-21T15:19:19.161Z,96106.88
2023-05-21T15:21:20.751Z,96119.84
2023-05-21T15:23:22.292Z,96105.84
2023-05-21T15:25:23.893Z,96093.75
2023-05-21T15:27:25.677Z,96100.31
2023-05-21T15:29:27.222Z,96094.13
2023-05-21T15:31:28.728Z,96096.03
2023-05-21T15:33:31.745Z,96098.84
2023-05-21T15:35:36.472Z,96085.53
2023-05-21T15:37:38.426Z,96089.34
2023-05-21T15:39:39.927Z,96094.41
2023-05-21T15:41:42.012Z,96091.97
2023-05-21T15:43:43.608Z,96095.72
2023-05-21T15:45:45.180Z,96091.59
2023-05-21T15:47:46.769Z,96090.72
2023-05-21T15:49:49.690Z,96098.25
2023-05-21T15:51:51.296Z,96104.88
2023-05-21T15:53:52.834Z,96101.69
2023-05-21T15:55:54.404Z,96105.72
2023-05-21T15:57:55.909Z,96111.88
2023-05-21T15:59:57.441Z,96112.00
2023-05-21T16:01:59.058Z,96112.97
2023-05-21T16:04:01.316Z,96108.94
2023-05-21T16:06:04.344Z,96105.16
2023-05-21T16:08:05.870Z,96106.63
2023-05-21T16:10:09.644Z,96107.38
2023-05-21T16:12:11.173Z,96108.06
2023-05-21T16:14:12.732Z,96101.69
2023-05-21T16:16:14.378Z,96113.44
2023-05-21T16:18:15.906Z,96112.13
2023-05-21T16:20:17.586Z,96088.00
2023-05-21T16:22:20.472Z,96103.22
2023-05-21T16:24:22.003Z,96097.47
2023-05-21T16:26:23.588Z,96099.94
2023-05-21T16:28:25.280Z,96063.34
2023-05-21T16:30:26.832Z,96099.13
2023-05-21T16:32:28.568Z,96095.97
2023-05-21T16:34:30.456Z,96097.81
2023-05-21T16:36:32.068Z,96088.81
2023-05-21T16:38:34.939Z,96093.28
2023-05-21T16:40:36.540Z,96096.16
2023-05-21T16:42:38.139Z,96093.22
2023-05-21T16:44:39.698Z,96090.81
2023-05-21T16:46:41.338Z,96099.53
2023-05-21T16:48:42.909Z,96094.47
2023-05-21T16:50:44.492Z,96097.13
2023-05-21T16:52:46.056Z,96092.22
2023-05-21T16:54:48.971Z,96091.00
2023-05-21T16:56:50.508Z,96083.13
2023-05-21T16:58:52.062Z,96087.38
2023-05-21T17:00:53.587Z,96089.97
2023-05-21T17:02:55.358Z,96090.81
2023-05-21T17:04:57.072Z,96095.81
2023-05-21T17:06:58.608Z,96093.69
2023-05-21T17:09:00.147Z,96089.44
2023-05-21T17:11:03.088Z,96080.31
2023-05-21T17:13:17.720Z,96088.59
2023-05-21T17:15:23.495Z,96091.09
2023-05-21T17:17:25.100Z,96092.00
2023-05-21T17:19:26.730Z,96088.94
2023-05-21T17:21:28.295Z,96085.88
2023-05-21T17:23:29.822Z,96087.41
2023-05-21T17:25:34.202Z,96098.66
2023-05-21T17:27:37.369Z,96094.59
2023-05-21T17:29:39.095Z,96093.66
2023-05-21T17:31:40.823Z,96087.03
2023-05-21T17:33:42.415Z,96088.97
2023-05-21T17:35:44.101Z,96095.06
2023-05-21T17:37:45.693Z,96099.66
2023-05-21T17:39:47.242Z,96097.81
2023-05-21T17:41:48.806Z,96093.09
2023-05-21T17:43:51.782Z,96104.00
2023-05-21T17:45:53.312Z,96101.34
2023-05-21T17:47:56.642Z,96101.00
2023-05-21T17:49:59.578Z,96100.47
2023-05-21T17:52:01.152Z,96106.16
2023-05-21T17:54:02.836Z,96104.66
2023-05-21T17:56:04.982Z,96113.94
2023-05-21T17:58:06.722Z,96111.22
2023-05-21T18:00:10.590Z,96113.69
2023-05-21T18:02:12.485Z,96112.59
2023-05-21T18:04:14.046Z,96112.16
2023-05-21T18:06:15.613Z,96123.06
2023-05-21T18:08:17.181Z,96116.81
2023-05-21T18:10:18.748Z,96119.28
2023-05-21T18:12:20.326Z,96127.69
2023-05-21T18:14:21.847Z,96127.41
2023-05-21T18:16:24.752Z,96125.25
2023-05-21T18:18:26.418Z,96124.94
2023-05-21T18:20:27.936Z,96127.13
2023-05-21T18:22:29.474Z,96129.28
2023-05-21T18:24:30.997Z,96128.47
2023-05-21T18:26:32.600Z,96133.56
2023-05-21T18:28:35.225Z,96125.19
2023-05-21T18:30:37.099Z,96121.00
2023-05-21T18:32:40.213Z,96120.72
2023-05-21T18:34:41.792Z,96128.00
2023-05-21T18:36:43.355Z,96124.41
2023-05-21T18:38:44.999Z,96127.19
2023-05-21T18:40:46.590Z,96123.69
2023-05-21T18:42:48.482Z,96129.38
2023-05-21T18:44:50.745Z,96125.31
2023-05-21T18:46:53.798Z,96120.97
2023-05-21T18:48:58.959Z,96125.31
2023-05-21T18:51:00.531Z,96130.16
2023-05-21T18:53:02.210Z,96133.16
2023-05-21T18:55:04.346Z,96131.25
2023-05-21T18:57:06.163Z,96135.53
2023-05-21T18:59:07.745Z,96133.38
2023-05-21T19:01:09.433Z,96146.34
2023-05-21T19:03:11.119Z,96141.72
2023-05-21T19:05:14.089Z,96146.78
2023-05-21T19:07:15.736Z,96146.75
2023-05-21T19:09:17.277Z,96152.41
2023-05-21T19:11:19.082Z,96149.41
2023-05-21T19:13:20.657Z,96152.91
2023-05-21T19:15:22.216Z,96152.06
2023-05-21T19:17:23.818Z,96157.72
2023-05-21T19:19:25.449Z,96156.03
2023-05-21T19:21:28.511Z,96159.53
2023-05-21T19:23:33.797Z,96159.53
2023-05-21T19:25:42.928Z,96158.41
2023-05-21T19:27:44.666Z,96161.09
2023-05-21T19:29:46.299Z,96146.41
2023-05-21T19:31:47.868Z,96157.22
2023-05-21T19:33:49.566Z,96155.59
2023-05-21T19:35:51.254Z,96161.00
2023-05-21T19:37:54.175Z,96163.66
2023-05-21T19:39:56.196Z,96161.19
2023-05-21T19:41:57.735Z,96166.22
2023-05-21T19:43:59.267Z,96172.16
2023-05-21T19:46:00.846Z,96168.28
2023-05-21T19:48:02.661Z,96177.19
2023-05-21T19:50:04.986Z,96175.78
2023-05-21T19:52:06.687Z,96174.97
2023-05-21T19:54:09.646Z,96174.63
2023-05-21T19:56:11.170Z,96177.75
2023-05-21T19:58:12.714Z,96178.34
2023-05-21T20:00:15.231Z,96186.88
2023-05-21T20:02:16.824Z,96178.22
2023-05-21T20:04:18.460Z,96180.03
2023-05-21T20:06:20.246Z,96174.22
2023-05-21T20:08:21.820Z,96181.00
2023-05-21T20:10:24.729Z,96180.69
2023-05-21T20:12:26.460Z,96173.31
2023-05-21T20:14:28.022Z,96174.66
2023-05-21T20:16:29.574Z,96182.19
2023-05-21T20:18:31.095Z,96174.66
2023-05-21T20:20:35.699Z,96180.56
2023-05-21T20:22:37.309Z,96169.63
2023-05-21T20:24:38.844Z,96177.97
2023-05-21T20:26:41.795Z,96186.84
2023-05-21T20:28:43.498Z,96179.25
2023-05-21T20:30:55.662Z,96175.97
2023-05-21T20:32:57.235Z,96181.38
2023-05-21T20:35:03.251Z,96180.69
2023-05-21T20:37:05.834Z,96172.84
2023-05-21T20:39:07.386Z,96185.50
2023-05-21T20:41:08.942Z,96178.91
2023-05-21T20:43:11.824Z,96185.69
2023-05-21T20:45:13.361Z,96173.19
2023-05-21T20:47:14.887Z,96180.38
2023-05-21T20:49:16.422Z,96175.41
2023-05-21T20:51:17.972Z,96179.19
2023-05-21T20:53:19.461Z,96172.72
2023-05-21T20:55:21.019Z,96181.78
2023-05-21T20:57:22.565Z,96176.81
2023-05-21T20:59:25.865Z,96182.19
2023-05-21T21:01:28.277Z,96174.44
2023-05-21T21:03:31.162Z,96179.34
2023-05-21T21:05:32.722Z,96183.84
2023-05-21T21:07:35.409Z,96176.50
2023-05-21T21:09:36.968Z,96178.56
2023-05-21T21:11:38.521Z,96186.38
2023-05-21T21:13:40.126Z,96184.44
2023-05-21T21:15:43.035Z,96179.53
2023-05-21T21:17:44.692Z,96184.69
2023-05-21T21:19:46.260Z,96182.22
2023-05-21T21:21:47.849Z,96181.97
2023-05-21T21:23:49.332Z,96187.63
2023-05-21T21:25:50.900Z,96169.66
2023-05-21T21:27:52.437Z,96189.91
2023-05-21T21:29:54.020Z,96189.91
2023-05-21T21:31:57.175Z,96194.00
2023-05-21T21:33:58.754Z,96186.16
2023-05-21T21:36:00.401Z,96190.63
2023-05-21T21:38:02.896Z,96184.66
2023-05-21T21:40:05.686Z,96189.47
2023-05-21T21:42:07.478Z,96179.69
2023-05-21T21:44:09.045Z,96174.59
2023-05-21T21:46:10.625Z,96190.84
2023-05-21T21:48:13.599Z,96181.28
2023-05-21T21:50:15.219Z,96183.06
2023-05-21T21:52:17.629Z,96188.59
2023-05-21T21:54:19.193Z,96183.13
2023-05-21T21:56:20.701Z,96182.88
2023-05-21T21:58:22.514Z,96184.41
2023-05-21T22:00:24.288Z,96189.69
2023-05-21T22:02:25.870Z,96192.28
2023-05-21T22:04:28.878Z,96197.19
2023-05-21T22:06:30.438Z,96196.03
2023-05-21T22:08:32.002Z,96194.06
2023-05-21T22:10:33.658Z,96178.75
2023-05-21T22:12:35.199Z,96189.25
2023-05-21T22:14:36.860Z,96193.59
2023-05-21T22:16:38.444Z,96191.84
2023-05-21T22:18:41.003Z,96193.97
2023-05-21T22:20:44.662Z,96191.03
2023-05-21T22:22:46.215Z,96188.56
2023-05-21T22:24:47.730Z,96184.00
2023-05-21T22:26:49.301Z,96196.50
2023-05-21T22:28:50.941Z,96196.16
2023-05-21T22:30:52.486Z,96186.72
2023-05-21T22:32:54.146Z,96191.38
2023-05-21T22:34:55.718Z,96192.69
2023-05-21T22:36:58.618Z,96190.13
2023-05-21T22:39:00.159Z,96192.47
2023-05-21T22:41:01.751Z,96176.94
2023-05-21T22:43:03.401Z,96194.69
2023-05-21T22:45:05.837Z,96194.00
2023-05-21T22:47:07.392Z,96196.69
2023-05-21T22:49:08.974Z,96199.59
2023-05-21T22:51:10.520Z,96203.56
2023-05-21T22:53:13.663Z,96199.59
2023-05-21T22:55:16.204Z,96194.91
2023-05-21T22:57:18.132Z,96199.13
2023-05-21T22:59:19.652Z,96194.22
2023-05-21T23:01:21.284Z,96185.56
2023-05-21T23:03:22.897Z,96195.88
2023-05-21T23:05:24.513Z,96193.03
2023-05-21T23:07:26.118Z,96193.50
2023-05-21T23:09:29.014Z,96191.50
2023-05-21T23:11:30.647Z,96198.16
2023-05-21T23:13:32.213Z,96190.34
2023-05-21T23:15:33.808Z,96193.25
2023-05-21T23:17:35.432Z,96191.63
2023-05-21T23:19:37.023Z,96188.22
2023-05-21T23:21:38.594Z,96190.09
2023-05-21T23:23:40.112Z,96188.69
2023-05-21T23:25:43.083Z,96192.66
2023-05-21T23:27:44.646Z,96178.53
2023-05-21T23:29:46.164Z,96189.50
2023-05-21T23:31:47.871Z,96188.75
2023-05-21T23:33:49.867Z,96187.13
2023-05-21T23:35:51.399Z,96183.38
2023-05-21T23:37:52.923Z,96185.03
2023-05-21T23:39:54.435Z,96190.03
2023-05-21T23:41:57.363Z,96185.94
2023-05-21T23:43:58.864Z,96186.41
2023-05-21T23:46:00.463Z,96186.88
2023-05-21T23:48:02.049Z,96184.06
2023-05-21T23:50:04.102Z,96176.69
2023-05-21T23:52:06.846Z,96176.34
2023-05-21T23:54:08.398Z,96177.38
2023-05-21T23:56:09.930Z,96175.53
2023-05-21T23:58:12.801Z,96184.50
